Time;durP1;ratioP1;P1;durP2;ratioP2;P2;SDS_P1;SDS_P2;PMS_P1;PMS_P2;Temp;Humidity;BMP_temperature;BMP_pressure;BME280_temperature;BME280_humidity;BME280_pressure;Samples;Min_cycle;Max_cycle;Signal;HPM_P1;HPM_P2
2023/04/11 00:03:37;;;;;;;;;;;;;;;5.21;69.10;100799.02;216166;1251;61219;-73
2023/04/11 00:08:30;;;;;;;;;;;;;;;5.17;69.06;100789.23;216433;1251;68028;-73
2023/04/11 00:13:25;;;;;;;;;;;;;;;5.11;69.09;100784.02;216160;1255;130515;-73
2023/04/11 00:18:18;;;;;;;;;;;;;;;5.13;69.30;100782.19;216407;1251;73116;-73
2023/04/11 00:23:12;;;;;;;;;;;;;;;5.09;69.33;100772.42;216327;1251;61247;-72
2023/04/11 00:28:05;;;;;;;;;;;;;;;5.04;69.33;100765.34;216404;1255;63755;-73
2023/04/11 00:32:58;;;;;;;;;;;;;;;4.94;69.34;100767.02;216440;1255;61309;-73
2023/04/11 00:37:54;;;;;;;;;;;;;;;4.89;69.52;100761.17;216363;1254;61286;-73
2023/04/11 00:42:48;;;;;;;;;;;;;;;4.85;69.55;100756.85;216367;1254;74505;-72
2023/04/11 00:47:41;;;;;;;;;;;;;;;4.76;69.34;100750.99;216293;1254;72663;-73
2023/04/11 00:52:36;;;;;;;;;;;;;;;4.66;69.52;100743.34;216384;1255;61346;-73
2023/04/11 00:57:29;;;;;;;;;;;;;;;4.57;69.63;100739.77;216384;1256;67045;-73
2023/04/11 01:02:23;;;;;;;;;;;;;;;4.52;69.73;100734.71;216429;1251;61335;-73
2023/04/11 01:07:19;;;;;;;;;;;;;;;4.47;70.16;100730.08;216326;1251;74551;-73
2023/04/11 01:12:14;;;;;;;;;;;;;;;4.44;70.09;100725.63;216443;1251;72610;-73
2023/04/11 01:17:11;;;;;;;;;;;;;;;4.40;70.20;100724.77;216391;1257;61373;-73
2023/04/11 01:22:04;;;;;;;;;;;;;;;4.35;70.16;100722.02;216345;1251;65334;-73
2023/04/11 01:26:57;;;;;;;;;;;;;;;4.32;70.15;100714.67;216283;1255;61324;-73
2023/04/11 01:31:53;;;;;;;;;;;;;;;4.27;70.40;100707.41;216407;1254;74707;-72
2023/04/11 01:36:47;;;;;;;;;;;;;;;4.24;70.36;100708.47;216416;1254;71509;-73
2023/04/11 01:41:41;;;;;;;;;;;;;;;4.19;70.41;100709.66;216346;1257;61323;-73
2023/04/11 01:46:35;;;;;;;;;;;;;;;4.14;70.33;100704.82;216357;1254;65675;-73
2023/04/11 01:51:27;;;;;;;;;;;;;;;4.07;70.49;100696.13;216432;1251;61356;-73
2023/04/11 01:56:20;;;;;;;;;;;;;;;4.03;70.47;100691.13;216469;1255;61327;-73
2023/04/11 02:01:13;;;;;;;;;;;;;;;3.99;70.88;100686.52;216267;1254;61192;-73
2023/04/11 02:06:06;;;;;;;;;;;;;;;3.96;70.74;100681.21;216278;1251;61245;-73
2023/04/11 02:10:59;;;;;;;;;;;;;;;3.92;70.75;100672.14;216453;1251;61257;-72
2023/04/11 02:15:51;;;;;;;;;;;;;;;3.89;70.96;100674.05;216471;1251;63513;-72
2023/04/11 02:20:44;;;;;;;;;;;;;;;3.83;70.98;100670.41;216414;1251;61293;-72
2023/04/11 02:25:37;;;;;;;;;;;;;;;3.80;71.19;100671.48;216434;1254;61157;-72
2023/04/11 02:30:30;;;;;;;;;;;;;;;3.76;71.23;100665.65;216379;1254;61764;-72
2023/04/11 02:35:23;;;;;;;;;;;;;;;3.71;71.46;100665.23;216252;1251;61307;-72
2023/04/11 02:40:16;;;;;;;;;;;;;;;3.67;71.41;100663.53;216243;1251;61262;-72
2023/04/11 02:45:09;;;;;;;;;;;;;;;3.61;71.27;100655.69;216343;1251;61219;-73
2023/04/11 02:50:02;;;;;;;;;;;;;;;3.56;71.40;100653.60;216321;1251;61337;-73
2023/04/11 02:54:59;;;;;;;;;;;;;;;3.58;71.91;100651.83;216306;1251;61444;-73
2023/04/11 02:59:52;;;;;;;;;;;;;;;3.57;71.65;100649.88;216303;1251;66139;-72
2023/04/11 03:04:51;;;;;;;;;;;;;;;3.52;71.68;100647.08;216387;1251;61239;-73
2023/04/11 03:09:44;;;;;;;;;;;;;;;3.45;71.65;100642.34;216345;1256;74527;-72
2023/04/11 03:14:36;;;;;;;;;;;;;;;3.44;72.26;100646.41;216360;1251;61257;-72
2023/04/11 03:19:29;;;;;;;;;;;;;;;3.41;71.72;100643.19;216359;1251;61196;-72
2023/04/11 03:24:24;;;;;;;;;;;;;;;3.36;72.09;100633.02;216364;1251;65182;-72
2023/04/11 03:29:17;;;;;;;;;;;;;;;3.32;72.06;100630.96;216363;1251;61253;-72
2023/04/11 03:34:24;;;;;;;;;;;;;;;3.28;72.11;100626.31;216276;1254;75332;-72
2023/04/11 03:39:20;;;;;;;;;;;;;;;3.27;72.23;100625.40;216386;1254;73402;-73
2023/04/11 03:44:13;;;;;;;;;;;;;;;3.24;72.47;100622.38;216403;1251;61360;-72
2023/04/11 03:49:08;;;;;;;;;;;;;;;3.21;72.07;100615.58;216300;1251;65837;-72
2023/04/11 03:54:01;;;;;;;;;;;;;;;3.17;72.11;100615.72;216411;1251;61263;-72
2023/04/11 03:58:57;;;;;;;;;;;;;;;3.16;72.37;100617.04;216361;1254;75481;-73
2023/04/11 04:03:53;;;;;;;;;;;;;;;3.15;72.44;100610.98;216360;1254;71844;-73
2023/04/11 04:08:47;;;;;;;;;;;;;;;3.17;72.54;100608.86;216504;1251;61337;-73
2023/04/11 04:13:40;;;;;;;;;;;;;;;3.19;72.35;100603.65;216693;1251;67229;-73
2023/04/11 04:18:36;;;;;;;;;;;;;;;3.23;72.74;100599.73;216365;1251;61349;-73
2023/04/11 04:23:31;;;;;;;;;;;;;;;3.33;72.96;100602.71;216681;1251;74773;-73
2023/04/11 04:28:47;;;;;;;;;;;;;;;3.39;72.86;100607.81;216359;1251;71203;-73
2023/04/11 04:33:44;;;;;;;;;;;;;;;3.47;72.92;100609.34;216373;1252;61353;-72
2023/04/11 04:38:44;;;;;;;;;;;;;;;3.52;72.92;100615.88;216390;1251;65575;-73
2023/04/11 04:43:40;;;;;;;;;;;;;;;3.55;72.80;100616.70;216455;1251;61265;-73
2023/04/11 04:48:40;;;;;;;;;;;;;;;3.59;73.12;100616.35;216291;1251;74978;-73
2023/04/11 04:53:37;;;;;;;;;;;;;;;3.66;73.45;100604.66;216275;1251;61257;-73
2023/04/11 04:58:32;;;;;;;;;;;;;;;3.77;73.39;100608.59;216364;1251;61269;-73
2023/04/11 05:03:27;;;;;;;;;;;;;;;3.87;73.47;100596.80;216323;1251;67484;-73
2023/04/11 05:08:22;;;;;;;;;;;;;;;3.96;73.53;100595.48;216477;1255;61256;-74
2023/04/11 05:13:15;;;;;;;;;;;;;;;4.08;73.78;100599.92;216528;1252;75926;-73
2023/04/11 05:18:08;;;;;;;;;;;;;;;4.17;73.89;100597.04;216253;1251;72502;-73
2023/04/11 05:23:01;;;;;;;;;;;;;;;4.29;74.21;100589.80;216349;1251;61265;-73
2023/04/11 05:27:55;;;;;;;;;;;;;;;4.40;74.39;100588.36;216302;1251;67331;-73
2023/04/11 05:32:49;;;;;;;;;;;;;;;4.54;74.31;100587.01;216447;1253;61250;-73
2023/04/11 05:37:44;;;;;;;;;;;;;;;4.68;74.77;100578.77;216464;1251;74302;-73
2023/04/11 05:42:37;;;;;;;;;;;;;;;4.88;75.69;100574.55;216375;1255;72380;-73
2023/04/11 05:47:31;;;;;;;;;;;;;;;5.18;76.37;100568.48;216497;1251;61420;-73
2023/04/11 05:52:24;;;;;;;;;;;;;;;5.39;76.46;100560.95;216320;1251;66293;-73
2023/04/11 05:57:17;;;;;;;;;;;;;;;5.70;77.53;100545.67;216413;1255;65248;-73
2023/04/11 06:02:09;;;;;;;;;;;;;;;6.02;77.47;100531.98;216564;1255;61286;-72
2023/04/11 06:07:03;;;;;;;;;;;;;;;6.27;77.76;100519.52;216428;1251;61269;-72
2023/04/11 06:11:56;;;;;;;;;;;;;;;6.57;78.00;100517.84;216380;1251;61375;-72
2023/04/11 06:16:49;;;;;;;;;;;;;;;6.83;78.23;100516.89;216228;1253;66879;-72
2023/04/11 06:21:41;;;;;;;;;;;;;;;7.14;78.03;100511.05;216110;1251;61363;-72
2023/04/11 06:26:36;;;;;;;;;;;;;;;7.52;78.07;100509.11;216204;1251;61266;-73
2023/04/11 06:31:29;;;;;;;;;;;;;;;7.94;77.47;100511.57;216217;1253;71735;-72
2023/04/11 06:36:22;;;;;;;;;;;;;;;8.30;77.30;100503.43;216170;1255;61294;-72
2023/04/11 06:41:15;;;;;;;;;;;;;;;9.38;75.77;100494.39;216235;1251;67034;-72
2023/04/11 06:46:08;;;;;;;;;;;;;;;9.94;74.60;100487.77;216303;1251;61276;-73
2023/04/11 06:51:00;;;;;;;;;;;;;;;9.93;74.22;100482.20;216405;1251;61332;-73
2023/04/11 06:55:53;;;;;;;;;;;;;;;9.94;74.36;100477.55;216273;1251;61260;-73
2023/04/11 07:00:46;;;;;;;;;;;;;;;10.01;74.16;100475.06;216346;1251;61344;-75
2023/04/11 07:05:39;;;;;;;;;;;;;;;10.23;73.65;100472.45;216232;1251;61333;-73
2023/04/11 07:10:32;;;;;;;;;;;;;;;10.53;73.03;100469.61;216294;1250;61381;-72
2023/04/11 07:15:24;;;;;;;;;;;;;;;10.76;72.63;100462.44;216238;1251;61781;-73
2023/04/11 07:20:20;;;;;;;;;;;;;;;13.08;69.51;100450.23;216287;1251;61246;-73
2023/04/11 07:25:13;;;;;;;;;;;;;;;17.61;63.22;100424.38;216160;1251;61704;-73
2023/04/11 07:30:06;;;;;;;;;;;;;;;19.29;59.45;100422.05;216441;1253;61344;-74
2023/04/11 07:34:59;;;;;;;;;;;;;;;22.32;55.33;100410.65;216228;1255;61296;-74
2023/04/11 07:39:52;;;;;;;;;;;;;;;21.67;54.38;100409.51;216246;1251;61238;-74
2023/04/11 07:44:45;;;;;;;;;;;;;;;21.69;52.28;100402.58;216256;1251;61391;-73
2023/04/11 07:49:38;;;;;;;;;;;;;;;22.64;51.22;100393.35;216184;1251;61247;-74
2023/04/11 07:54:31;;;;;;;;;;;;;;;22.80;49.77;100386.55;216210;1251;61316;-74
2023/04/11 07:59:24;;;;;;;;;;;;;;;24.06;47.39;100376.94;216270;1255;61768;-74
2023/04/11 08:04:17;;;;;;;;;;;;;;;24.68;45.98;100372.04;216290;1251;61243;-74
2023/04/11 08:09:10;;;;;;;;;;;;;;;24.30;45.72;100372.04;216195;1251;61700;-73
2023/04/11 08:14:03;;;;;;;;;;;;;;;23.19;45.46;100362.91;216184;1251;61328;-73
2023/04/11 08:18:57;;;;;;;;;;;;;;;22.42;44.92;100356.91;216297;1251;61263;-75
2023/04/11 08:23:50;;;;;;;;;;;;;;;22.19;44.64;100356.17;216179;1251;61250;-74
2023/04/11 08:28:43;;;;;;;;;;;;;;;23.30;42.82;100353.25;216360;1251;61215;-74
2023/04/11 08:33:36;;;;;;;;;;;;;;;23.39;42.41;100350.72;216247;1251;72474;-74
2023/04/11 08:38:29;;;;;;;;;;;;;;;22.32;43.81;100347.24;216286;1251;61239;-74
2023/04/11 08:43:22;;;;;;;;;;;;;;;23.08;42.96;100335.77;216014;1251;61331;-74
2023/04/11 08:48:15;;;;;;;;;;;;;;;23.43;41.54;100334.17;216109;1251;61244;-74
2023/04/11 08:53:08;;;;;;;;;;;;;;;24.81;39.83;100322.67;216047;1251;75735;-74
2023/04/11 08:58:02;;;;;;;;;;;;;;;25.28;39.51;100312.37;216098;1251;61276;-74
2023/04/11 09:02:55;;;;;;;;;;;;;;;24.49;39.49;100307.71;216305;1255;61322;-74
2023/04/11 09:07:50;;;;;;;;;;;;;;;25.91;37.26;100292.77;216132;1251;61352;-74
2023/04/11 09:12:43;;;;;;;;;;;;;;;24.90;37.58;100290.66;216157;1251;61362;-73
2023/04/11 09:17:42;;;;;;;;;;;;;;;22.91;38.16;100298.47;216207;1252;74649;-73
2023/04/11 09:22:36;;;;;;;;;;;;;;;21.05;39.94;100289.02;215998;1251;71005;-74
2023/04/11 09:27:29;;;;;;;;;;;;;;;20.40;41.07;100284.40;216038;1253;61276;-72
2023/04/11 09:32:29;;;;;;;;;;;;;;;20.68;40.94;100270.83;215924;1251;66834;-74
2023/04/11 09:37:23;;;;;;;;;;;;;;;20.92;40.84;100269.19;216002;1251;61261;-74
2023/04/11 09:42:23;;;;;;;;;;;;;;;21.82;39.40;100253.73;216170;1251;74452;-74
2023/04/11 09:47:16;;;;;;;;;;;;;;;21.97;38.59;100251.95;216204;1251;72587;-73
2023/04/11 09:52:09;;;;;;;;;;;;;;;21.38;39.77;100233.80;216164;1251;61100;-74
2023/04/11 09:57:03;;;;;;;;;;;;;;;22.73;38.74;100218.27;216259;1251;61353;-73
2023/04/11 10:01:57;;;;;;;;;;;;;;;22.32;38.51;100214.96;216147;1251;61389;-74
2023/04/11 10:06:58;;;;;;;;;;;;;;;22.64;37.89;100196.27;216128;1253;72253;-74
2023/04/11 10:11:51;;;;;;;;;;;;;;;25.66;35.06;100178.23;215843;1253;72823;-74
2023/04/11 10:17:04;;;;;;;;;;;;;;;26.74;34.46;100174.15;215987;1251;61532;-74
2023/04/11 10:21:57;;;;;;;;;;;;;;;28.51;33.45;100166.11;216217;1251;67383;-75
2023/04/11 10:26:58;;;;;;;;;;;;;;;30.37;29.84;100160.67;216134;1253;61354;-75
2023/04/11 10:32:09;;;;;;;;;;;;;;;30.72;27.99;100161.98;216239;1251;73081;-74
2023/04/11 10:37:04;;;;;;;;;;;;;;;31.04;27.26;100157.04;216266;1251;72552;-75
2023/04/11 10:42:17;;;;;;;;;;;;;;;31.51;26.65;100150.01;216272;1250;61189;-75
2023/04/11 10:47:16;;;;;;;;;;;;;;;31.04;25.89;100144.01;216244;1251;65544;-75
2023/04/11 10:52:16;;;;;;;;;;;;;;;31.16;25.79;100134.67;216196;1254;61217;-75
2023/04/11 10:57:10;;;;;;;;;;;;;;;30.10;26.97;100131.50;216229;1255;75637;-75
2023/04/11 11:02:02;;;;;;;;;;;;;;;30.26;27.72;100124.98;216186;1253;61535;-75
2023/04/11 11:06:56;;;;;;;;;;;;;;;27.80;28.36;100127.14;216179;1251;61401;-74
2023/04/11 11:12:08;;;;;;;;;;;;;;;26.09;30.03;100127.39;216130;1251;67257;-75
2023/04/11 11:17:01;;;;;;;;;;;;;;;27.75;29.30;100114.27;216127;1251;61310;-74
2023/04/11 11:21:55;;;;;;;;;;;;;;;27.28;28.19;100111.00;216209;1255;74635;-75
2023/04/11 11:26:51;;;;;;;;;;;;;;;27.04;28.41;100108.71;216231;1251;74140;-75
2023/04/11 11:31:45;;;;;;;;;;;;;;;27.13;28.01;100099.64;216232;1251;61347;-75
2023/04/11 11:36:43;;;;;;;;;;;;;;;24.66;29.75;100099.70;216232;1251;67958;-73
2023/04/11 11:41:40;;;;;;;;;;;;;;;22.80;30.89;100105.63;216093;1251;61254;-74
2023/04/11 11:46:34;;;;;;;;;;;;;;;22.44;31.90;100102.60;215964;1251;73735;-74
2023/04/11 11:51:27;;;;;;;;;;;;;;;21.78;32.21;100095.85;216093;1254;73702;-74
2023/04/11 11:56:20;;;;;;;;;;;;;;;20.93;33.08;100095.66;215991;1251;61248;-75
2023/04/11 12:01:15;;;;;;;;;;;;;;;20.17;33.25;100092.95;215985;1251;66271;-74
2023/04/11 12:06:10;;;;;;;;;;;;;;;19.58;34.76;100088.06;215928;1251;61257;-74
2023/04/11 12:11:10;;;;;;;;;;;;;;;19.07;36.22;100085.49;215819;1251;163465;-73
2023/04/11 12:16:03;;;;;;;;;;;;;;;18.79;37.36;100087.29;215849;1251;73427;-75
2023/04/11 12:20:57;;;;;;;;;;;;;;;18.55;38.09;100081.08;215872;1250;61227;-74
2023/04/11 12:25:50;;;;;;;;;;;;;;;18.14;38.76;100079.30;216014;1255;66938;-74
2023/04/11 12:30:43;;;;;;;;;;;;;;;17.85;39.60;100074.70;216105;1251;61320;-73
2023/04/11 12:35:36;;;;;;;;;;;;;;;17.75;39.62;100070.88;216002;1251;61362;-75
2023/04/11 12:40:29;;;;;;;;;;;;;;;18.19;39.74;100065.48;215844;1251;71353;-75
2023/04/11 12:45:22;;;;;;;;;;;;;;;18.26;39.85;100058.14;215779;1251;61276;-75
2023/04/11 12:50:15;;;;;;;;;;;;;;;17.80;40.16;100057.83;215992;1251;67828;-74
2023/04/11 12:55:09;;;;;;;;;;;;;;;17.48;40.90;100053.27;215965;1251;61228;-76
2023/04/11 13:00:09;;;;;;;;;;;;;;;17.25;41.49;100050.44;215938;1253;73109;-75
2023/04/11 13:05:05;;;;;;;;;;;;;;;17.11;41.59;100038.64;215980;1252;73744;-75
2023/04/11 13:09:58;;;;;;;;;;;;;;;17.18;41.47;100031.85;216147;1251;61344;-74
2023/04/11 13:14:50;;;;;;;;;;;;;;;17.50;41.32;100024.67;216236;1253;61213;-75
2023/04/11 13:19:44;;;;;;;;;;;;;;;17.84;40.67;100017.56;216061;1255;61261;-75
2023/04/11 13:24:37;;;;;;;;;;;;;;;18.06;40.77;100006.73;216143;1253;61233;-75
2023/04/11 13:29:29;;;;;;;;;;;;;;;18.38;40.52;100000.11;216171;1252;61357;-75
2023/04/11 13:34:22;;;;;;;;;;;;;;;18.46;40.09;99991.64;216219;1252;61301;-74
2023/04/11 13:39:15;;;;;;;;;;;;;;;18.50;40.11;99983.12;216232;1253;61270;-76
2023/04/11 13:44:09;;;;;;;;;;;;;;;18.54;40.15;99983.36;216112;1254;61290;-75
2023/04/11 13:49:04;;;;;;;;;;;;;;;18.63;39.95;99979.06;216138;1254;74582;-75
2023/04/11 13:53:57;;;;;;;;;;;;;;;18.75;39.91;99962.25;215735;1253;72419;-76
2023/04/11 13:58:50;;;;;;;;;;;;;;;18.81;39.67;99959.80;215882;1253;61326;-74
2023/04/11 14:03:43;;;;;;;;;;;;;;;18.70;39.69;99954.82;215832;1253;65702;-75
2023/04/11 14:08:36;;;;;;;;;;;;;;;18.65;39.86;99948.83;215739;1253;61283;-75
2023/04/11 14:13:29;;;;;;;;;;;;;;;18.75;39.48;99943.82;216049;1253;73822;-75
2023/04/11 14:18:22;;;;;;;;;;;;;;;18.50;39.82;99940.66;216160;1253;73531;-75
2023/04/11 14:23:16;;;;;;;;;;;;;;;18.24;40.01;99937.84;216044;1253;61333;-74
2023/04/11 14:28:09;;;;;;;;;;;;;;;18.16;40.50;99932.10;216116;1253;66870;-75
2023/04/11 14:33:02;;;;;;;;;;;;;;;18.02;40.94;99936.68;216176;1253;61277;-75
2023/04/11 14:37:55;;;;;;;;;;;;;;;17.92;40.99;99933.60;216093;1251;61267;-73
2023/04/11 14:42:50;;;;;;;;;;;;;;;17.83;41.14;99930.64;216849;1253;72860;-75
2023/04/11 14:47:42;;;;;;;;;;;;;;;17.91;41.17;99926.27;216085;1251;61124;-75
2023/04/11 14:52:36;;;;;;;;;;;;;;;17.73;41.10;99918.45;216083;1253;61262;-75
2023/04/11 14:57:45;;;;;;;;;;;;;;;17.54;41.83;99913.49;216050;1252;61318;-75
2023/04/11 15:02:38;;;;;;;;;;;;;;;17.40;41.83;99909.10;216061;1251;74590;-75
2023/04/11 15:07:30;;;;;;;;;;;;;;;17.40;42.45;99905.27;216102;1252;72117;-75
2023/04/11 15:12:23;;;;;;;;;;;;;;;17.39;42.45;99903.89;216164;1251;61250;-74
2023/04/11 15:17:16;;;;;;;;;;;;;;;17.29;42.38;99899.39;216006;1255;61871;-75
2023/04/11 15:22:09;;;;;;;;;;;;;;;17.27;42.56;99893.64;216137;1252;61259;-76
2023/04/11 15:27:02;;;;;;;;;;;;;;;17.25;42.49;99896.14;216233;1253;61331;-74
2023/04/11 15:31:55;;;;;;;;;;;;;;;17.18;42.40;99890.17;216125;1253;61416;-75
2023/04/11 15:36:48;;;;;;;;;;;;;;;17.05;42.50;99882.60;216227;1251;61243;-75
2023/04/11 15:41:41;;;;;;;;;;;;;;;16.92;42.95;99875.55;216101;1253;61255;-74
2023/04/11 15:46:34;;;;;;;;;;;;;;;16.78;43.29;99867.25;216133;1251;61282;-74
2023/04/11 15:51:27;;;;;;;;;;;;;;;16.59;43.34;99864.16;216110;1254;61368;-73
2023/04/11 15:56:21;;;;;;;;;;;;;;;16.34;43.52;99857.67;216026;1251;73660;-74
2023/04/11 16:01:21;;;;;;;;;;;;;;;16.10;44.09;99856.58;216110;1253;61313;-74
2023/04/11 16:06:18;;;;;;;;;;;;;;;15.88;44.31;99853.86;216229;1251;67118;-74
2023/04/11 16:11:11;;;;;;;;;;;;;;;15.67;44.77;99853.85;216188;1253;61240;-74
2023/04/11 16:16:04;;;;;;;;;;;;;;;15.52;45.48;99853.94;216087;1253;61204;-74
2023/04/11 16:20:59;;;;;;;;;;;;;;;15.33;45.76;99854.44;216121;1253;71332;-73
2023/04/11 16:25:52;;;;;;;;;;;;;;;15.15;45.95;99846.32;216107;1253;61197;-75
2023/04/11 16:30:48;;;;;;;;;;;;;;;15.00;46.07;99848.29;216202;1251;61298;-74
2023/04/11 16:35:41;;;;;;;;;;;;;;;14.88;46.37;99847.61;216003;1253;61210;-73
2023/04/11 16:40:34;;;;;;;;;;;;;;;14.77;46.86;99846.19;216090;1253;61298;-74
2023/04/11 16:45:27;;;;;;;;;;;;;;;14.63;47.41;99839.22;216169;1251;73720;-74
2023/04/11 16:50:21;;;;;;;;;;;;;;;14.48;48.09;99835.22;216193;1253;61259;-73
2023/04/11 16:55:14;;;;;;;;;;;;;;;14.32;48.76;99834.02;216111;1253;67553;-74
2023/04/11 17:00:10;;;;;;;;;;;;;;;14.12;49.24;99833.04;216102;1253;61330;-74
2023/04/11 17:05:03;;;;;;;;;;;;;;;13.91;49.85;99829.80;216088;1251;73142;-75
2023/04/11 17:09:56;;;;;;;;;;;;;;;13.68;50.17;99828.63;216011;1253;72977;-75
2023/04/11 17:14:51;;;;;;;;;;;;;;;13.46;50.76;99835.10;216170;1251;61258;-75
2023/04/11 17:19:44;;;;;;;;;;;;;;;13.24;50.88;99836.48;216102;1253;68283;-74
2023/04/11 17:24:36;;;;;;;;;;;;;;;13.04;51.56;99838.89;216243;1251;61135;-74
2023/04/11 17:29:29;;;;;;;;;;;;;;;12.81;51.96;99835.22;216156;1255;61372;-75
2023/04/11 17:34:22;;;;;;;;;;;;;;;12.58;52.27;99832.57;216175;1253;61378;-75
2023/04/11 17:39:18;;;;;;;;;;;;;;;12.36;52.62;99833.36;216290;1251;61257;-75
2023/04/11 17:44:11;;;;;;;;;;;;;;;12.17;53.20;99831.53;216152;1251;67183;-74
2023/04/11 17:49:04;;;;;;;;;;;;;;;12.00;53.65;99837.85;216308;1255;61364;-74
2023/04/11 17:53:57;;;;;;;;;;;;;;;11.83;54.02;99841.16;216199;1255;61254;-75
2023/04/11 17:58:50;;;;;;;;;;;;;;;11.66;54.39;99841.19;216099;1253;73423;-75
2023/04/11 18:03:43;;;;;;;;;;;;;;;11.47;54.73;99847.11;216207;1253;61384;-76
2023/04/11 18:08:37;;;;;;;;;;;;;;;11.30;55.19;99843.63;216184;1255;67943;-75
2023/04/11 18:13:43;;;;;;;;;;;;;;;11.14;55.66;99848.30;216167;1252;61366;-76
2023/04/11 18:18:38;;;;;;;;;;;;;;;11.01;56.06;99850.55;216304;1251;73280;-75
2023/04/11 18:23:31;;;;;;;;;;;;;;;10.89;56.31;99853.65;216069;1253;73670;-75
2023/04/11 18:28:24;;;;;;;;;;;;;;;10.75;56.65;99855.36;216109;1251;61319;-75
2023/04/11 18:33:17;;;;;;;;;;;;;;;10.58;56.91;99856.87;216179;1251;61276;-74
2023/04/11 18:38:12;;;;;;;;;;;;;;;10.46;57.38;99856.83;216194;1251;65423;-74
2023/04/11 18:43:07;;;;;;;;;;;;;;;10.32;57.65;99854.00;216230;1255;61312;-75
2023/04/11 18:48:01;;;;;;;;;;;;;;;10.20;57.94;99862.41;216111;1253;73793;-74
2023/04/11 18:52:54;;;;;;;;;;;;;;;10.07;58.20;99860.95;216203;1253;62560;-74
2023/04/11 18:57:53;;;;;;;;;;;;;;;9.98;58.60;99857.77;216212;1255;64695;-74
2023/04/11 19:02:51;;;;;;;;;;;;;;;9.89;58.78;99853.40;216167;1253;61236;-74
2023/04/11 19:07:45;;;;;;;;;;;;;;;9.82;58.90;99854.40;216178;1253;75146;-74
2023/04/11 19:12:38;;;;;;;;;;;;;;;9.72;58.99;99844.48;216205;1251;73227;-74
2023/04/11 19:17:31;;;;;;;;;;;;;;;9.64;59.35;99848.05;216250;1255;61326;-74
2023/04/11 19:22:24;;;;;;;;;;;;;;;9.57;59.72;99847.32;216162;1255;61254;-74
2023/04/11 19:27:17;;;;;;;;;;;;;;;9.47;59.59;99843.45;216256;1255;61255;-75
2023/04/11 19:32:10;;;;;;;;;;;;;;;9.39;60.01;99843.73;216156;1252;61258;-73
2023/04/11 19:37:03;;;;;;;;;;;;;;;9.32;60.24;99847.13;216188;1251;71403;-73
2023/04/11 19:41:56;;;;;;;;;;;;;;;9.23;60.28;99850.16;216138;1256;61304;-74
2023/04/11 19:46:49;;;;;;;;;;;;;;;9.08;60.44;99847.78;216281;1255;61294;-73
2023/04/11 19:51:41;;;;;;;;;;;;;;;8.99;60.79;99851.85;216502;1256;61355;-74
2023/04/11 19:56:36;;;;;;;;;;;;;;;8.91;60.79;99852.63;216176;1252;61266;-73
2023/04/11 20:01:31;;;;;;;;;;;;;;;8.79;61.05;99854.93;216059;1251;72148;-73
2023/04/11 20:06:23;;;;;;;;;;;;;;;8.72;61.31;99855.04;216137;1251;61717;-73
2023/04/11 20:11:16;;;;;;;;;;;;;;;8.62;61.35;99854.05;216111;1251;61264;-74
2023/04/11 20:16:10;;;;;;;;;;;;;;;8.51;61.68;99853.23;216280;1251;61222;-73
2023/04/11 20:21:05;;;;;;;;;;;;;;;8.39;61.64;99852.22;215988;1251;74694;-73
2023/04/11 20:25:57;;;;;;;;;;;;;;;8.24;61.95;99851.69;216061;1254;73684;-73
2023/04/11 20:30:50;;;;;;;;;;;;;;;8.18;62.30;99846.61;216138;1251;68669;-72
2023/04/11 20:35:43;;;;;;;;;;;;;;;8.05;61.96;99841.77;216094;1251;61336;-74
2023/04/11 20:40:37;;;;;;;;;;;;;;;7.92;62.38;99839.36;216202;1255;61250;-73
2023/04/11 20:45:32;;;;;;;;;;;;;;;7.90;62.87;99837.77;216165;1253;74577;-73
2023/04/11 20:50:29;;;;;;;;;;;;;;;7.83;62.86;99840.61;216131;1255;72511;-73
2023/04/11 20:55:24;;;;;;;;;;;;;;;7.77;63.28;99847.43;216180;1255;61329;-73
2023/04/11 21:00:17;;;;;;;;;;;;;;;7.72;63.23;99843.39;216205;1255;67530;-73
2023/04/11 21:05:10;;;;;;;;;;;;;;;7.64;63.62;99844.66;216267;1251;61263;-73
2023/04/11 21:10:05;;;;;;;;;;;;;;;7.58;63.81;99849.22;216256;1251;74663;-73
2023/04/11 21:14:59;;;;;;;;;;;;;;;7.54;63.97;99851.41;216044;1255;72580;-74
2023/04/11 21:19:51;;;;;;;;;;;;;;;7.49;64.06;99847.52;216155;1254;61324;-73
2023/04/11 21:24:44;;;;;;;;;;;;;;;7.42;64.03;99843.27;216203;1251;61223;-74
2023/04/11 21:29:37;;;;;;;;;;;;;;;7.34;64.24;99840.75;216148;1251;61235;-72
2023/04/11 21:34:30;;;;;;;;;;;;;;;7.27;64.50;99841.83;216205;1251;61900;-72
2023/04/11 21:39:22;;;;;;;;;;;;;;;7.20;64.67;99838.45;216020;1251;61352;-73
2023/04/11 21:44:15;;;;;;;;;;;;;;;7.15;64.69;99836.47;216147;1251;61341;-72
2023/04/11 21:49:08;;;;;;;;;;;;;;;7.08;64.78;99831.34;216273;1251;61128;-72
2023/04/11 21:54:03;;;;;;;;;;;;;;;7.01;64.98;99828.31;216161;1254;61326;-72
2023/04/11 21:58:56;;;;;;;;;;;;;;;6.95;65.16;99824.59;216203;1255;74077;-72
2023/04/11 22:03:49;;;;;;;;;;;;;;;6.93;65.21;99821.78;216215;1251;61332;-72
2023/04/11 22:08:49;;;;;;;;;;;;;;;6.90;65.51;99826.39;216260;1251;61196;-72
2023/04/11 22:13:45;;;;;;;;;;;;;;;6.99;66.26;99833.77;216235;1255;67115;-72
2023/04/11 22:18:47;;;;;;;;;;;;;;;7.20;66.62;99832.75;216244;1255;61292;-74
2023/04/11 22:23:43;;;;;;;;;;;;;;;7.38;66.58;99833.20;216131;1251;74417;-73
2023/04/11 22:28:36;;;;;;;;;;;;;;;7.54;66.61;99829.85;216023;1251;73897;-72
2023/04/11 22:33:29;;;;;;;;;;;;;;;7.60;66.49;99827.86;216248;1256;61222;-72
2023/04/11 22:38:23;;;;;;;;;;;;;;;7.62;66.48;99822.20;216242;1251;61267;-72
2023/04/11 22:43:15;;;;;;;;;;;;;;;7.63;66.59;99817.91;216165;1251;61230;-73
2023/04/11 22:48:08;;;;;;;;;;;;;;;7.63;66.67;99811.34;215828;1254;61238;-73
2023/04/11 22:53:01;;;;;;;;;;;;;;;7.59;66.48;99812.15;216083;1253;61338;-73
2023/04/11 22:57:56;;;;;;;;;;;;;;;7.50;66.41;99807.20;216167;1251;62432;-73
2023/04/11 23:02:49;;;;;;;;;;;;;;;7.41;66.60;99809.64;216127;1251;66735;-73
2023/04/11 23:07:42;;;;;;;;;;;;;;;7.35;66.86;99803.86;216285;1251;61249;-73
2023/04/11 23:12:35;;;;;;;;;;;;;;;7.32;66.92;99800.71;216384;1251;61356;-73
2023/04/11 23:17:28;;;;;;;;;;;;;;;7.29;67.06;99795.83;216334;1251;72412;-73
2023/04/11 23:22:22;;;;;;;;;;;;;;;7.30;67.38;99801.55;216308;1251;61365;-73
2023/04/11 23:27:15;;;;;;;;;;;;;;;7.35;67.43;99802.66;216192;1253;68393;-73
2023/04/11 23:32:08;;;;;;;;;;;;;;;7.35;67.59;99808.68;216289;1251;61311;-72
2023/04/11 23:37:01;;;;;;;;;;;;;;;7.30;67.63;99807.05;216449;1251;61386;-73
2023/04/11 23:41:54;;;;;;;;;;;;;;;7.31;67.91;99806.20;216281;1255;61243;-72
2023/04/11 23:46:46;;;;;;;;;;;;;;;7.36;68.15;99803.02;216316;1251;61290;-72
2023/04/11 23:51:39;;;;;;;;;;;;;;;7.34;67.95;99802.63;216403;1251;61251;-73
2023/04/11 23:56:32;;;;;;;;;;;;;;;7.24;68.21;99812.13;216296;1251;61323;-72
